Time;durP1;ratioP1;P1;durP2;ratioP2;P2;SDS_P1;SDS_P2;PMS_P1;PMS_P2;Temp;Humidity;BMP_temperature;BMP_pressure;BME280_temperature;BME280_humidity;BME280_pressure;Samples;Min_cycle;Max_cycle;Signal;HPM_P1;HPM_P2
2022/10/18 00:01:34;;;;;;;8.93;6.75;;;;;;;11.19;51.94;101142.25;5014376;28;20120;-79
2022/10/18 00:03:59;;;;;;;10.85;7.25;;;;;;;11.25;52.52;101130.28;5014265;28;20105;-79
2022/10/18 00:06:25;;;;;;;10.45;6.93;;;;;;;11.80;52.44;101225.63;5014180;28;20054;-79
2022/10/18 00:08:50;;;;;;;9.82;6.13;;;;;;;11.36;52.38;101165.31;5014090;28;20022;-79
2022/10/18 00:11:16;;;;;;;10.10;6.07;;;;;;;11.59;52.64;101217.88;5012743;28;20048;-79
2022/10/18 00:13:41;;;;;;;8.68;6.47;;;;;;;11.33;53.11;101189.41;5014140;28;20022;-79
2022/10/18 00:16:11;;;;;;;10.32;6.10;;;;;;;11.11;53.37;101139.47;5014103;28;20026;-79
2022/10/18 00:18:36;;;;;;;9.48;6.35;;;;;;;10.03;53.09;100975.09;5012772;28;20033;-79
2022/10/18 00:21:10;;;;;;;9.70;6.15;;;;;;;11.66;53.19;101211.03;5012656;28;20017;-79
2022/10/18 00:23:36;;;;;;;7.15;5.72;;;;;;;11.67;52.98;101207.41;5013680;28;20421;-79
2022/10/18 00:26:03;;;;;;;8.32;5.82;;;;;;;11.66;53.19;101200.44;5012716;28;20018;-79
2022/10/18 00:28:28;;;;;;;9.75;6.15;;;;;;;11.45;53.32;101175.03;5014013;28;20391;-79
2022/10/18 00:30:54;;;;;;;8.65;5.95;;;;;;;11.03;53.18;101126.94;5012443;28;20088;-79
2022/10/18 00:33:19;;;;;;;9.38;5.47;;;;;;;11.07;53.65;101135.44;5012547;28;20026;-79
2022/10/18 00:35:45;;;;;;;7.90;6.10;;;;;;;11.18;53.83;101177.59;5013732;28;20026;-79
2022/10/18 00:38:10;;;;;;;8.85;6.13;;;;;;;10.44;53.90;101035.56;5013597;28;20021;-79
2022/10/18 00:40:35;;;;;;;7.93;5.57;;;;;;;11.41;54.60;101197.44;5013526;28;20029;-79
2022/10/18 00:43:01;;;;;;;11.43;6.80;;;;;;;10.90;54.49;101109.72;5013528;28;20057;-79
2022/10/18 00:45:26;;;;;;;7.85;6.07;;;;;;;11.26;54.27;101158.38;5013507;28;20025;-79
2022/10/18 00:47:59;;;;;;;9.95;6.60;;;;;;;11.12;54.32;101139.31;5012328;28;20054;-79
2022/10/18 00:50:27;;;;;;;11.50;6.45;;;;;;;11.41;54.19;101184.22;5013488;28;20030;-79
2022/10/18 00:52:57;;;;;;;7.47;5.70;;;;;;;11.39;54.14;101177.41;5013373;28;20033;-79
2022/10/18 00:55:24;;;;;;;13.65;7.20;;;;;;;11.23;54.20;101158.66;5013312;28;20045;-79
2022/10/18 00:57:50;;;;;;;8.55;6.03;;;;;;;10.83;54.35;101077.75;5013147;28;20490;-79
2022/10/18 01:00:17;;;;;;;8.90;6.43;;;;;;;11.41;54.42;101172.81;5011811;28;20013;-79
2022/10/18 01:02:43;;;;;;;8.57;6.47;;;;;;;10.86;54.02;101079.28;5013204;28;20060;-79
2022/10/18 01:05:14;;;;;;;12.75;8.13;;;;;;;11.36;54.28;101148.59;5011953;28;20049;-79
2022/10/18 01:08:18;;;;;;;22.10;12.82;;;;;;;10.92;54.49;101102.50;5012768;28;20048;-79
2022/10/18 01:10:47;;;;;;;9.90;7.40;;;;;;;11.31;54.39;101172.00;5012898;28;20022;-79
2022/10/18 01:13:40;;;;;;;9.90;7.30;;;;;;;11.28;54.76;101167.00;5011779;28;20026;-79
2022/10/18 01:16:15;;;;;;;11.85;6.22;;;;;;;11.11;54.88;101158.78;5011738;28;20017;-79
2022/10/18 01:18:44;;;;;;;13.88;7.85;;;;;;;11.24;54.45;101169.09;5012874;28;20033;-79
2022/10/18 01:21:33;;;;;;;7.90;6.32;;;;;;;10.59;54.42;101037.75;5012954;28;20091;-79
2022/10/18 01:24:26;;;;;;;6.97;5.60;;;;;;;11.28;54.94;101161.72;5012758;28;20025;-79
2022/10/18 01:27:07;;;;;;;7.93;6.32;;;;;;;11.19;55.00;101160.75;5012923;28;20026;-79
2022/10/18 01:30:03;;;;;;;7.85;6.13;;;;;;;11.18;54.79;101151.16;5012697;28;20897;-79
2022/10/18 01:32:35;;;;;;;8.52;6.05;;;;;;;11.20;55.24;101149.22;5016615;28;20076;-80
2022/10/18 01:35:07;;;;;;;10.90;6.05;;;;;;;10.73;55.19;101069.03;5012273;28;20087;-79
2022/10/18 01:37:35;;;;;;;9.32;6.00;;;;;;;10.86;54.59;101092.50;5011080;28;20110;-79
2022/10/18 01:40:05;;;;;;;10.88;6.82;;;;;;;11.07;55.08;101138.06;5011210;28;20042;-79
2022/10/18 01:42:31;;;;;;;9.13;6.70;;;;;;;10.81;55.55;101106.97;5012515;28;20043;-80
2022/10/18 01:44:58;;;;;;;10.88;6.68;;;;;;;10.71;55.25;101098.22;5011226;28;20018;-79
2022/10/18 01:47:24;;;;;;;9.77;6.70;;;;;;;10.61;55.67;101080.72;5011208;28;20030;-79
2022/10/18 01:49:57;;;;;;;10.55;6.63;;;;;;;10.75;55.52;101131.31;5012266;28;20105;-79
2022/10/18 01:52:22;;;;;;;8.98;6.70;;;;;;;10.32;55.87;101054.28;5011990;28;20083;-79
2022/10/18 01:54:48;;;;;;;8.30;6.25;;;;;;;9.92;55.55;100983.97;5010874;28;20448;-79
2022/10/18 01:57:28;;;;;;;6.78;6.07;;;;;;;10.61;55.95;101092.13;5012312;28;20081;-80
2022/10/18 02:00:07;;;;;;;10.88;6.90;;;;;;;10.55;55.61;101095.31;5012150;28;20029;-79
2022/10/18 02:02:55;;;;;;;11.10;7.18;;;;;;;11.02;55.73;101159.66;5012238;28;20153;-79
2022/10/18 02:05:35;;;;;;;10.10;6.78;;;;;;;10.97;55.70;101161.88;5011968;28;20041;-79
2022/10/18 02:08:29;;;;;;;7.63;6.35;;;;;;;10.77;55.87;101129.34;5010689;28;20100;-79
2022/10/18 02:11:07;;;;;;;15.07;10.82;;;;;;;10.92;55.81;101158.81;5011870;28;20028;-79
2022/10/18 02:13:42;;;;;;;18.95;12.80;;;;;;;10.94;55.90;101161.31;5012024;28;20025;-79
2022/10/18 02:16:14;;;;;;;11.88;8.75;;;;;;;10.95;55.68;101149.78;5010623;28;20410;-79
2022/10/18 02:18:45;;;;;;;11.00;6.60;;;;;;;10.26;55.23;101039.84;5010598;28;20495;-79
2022/10/18 02:21:14;;;;;;;12.15;7.50;;;;;;;10.81;55.68;101141.31;5011878;28;20076;-79
2022/10/18 02:23:43;;;;;;;11.90;6.85;;;;;;;10.87;56.39;101157.56;5010905;28;20026;-80
2022/10/18 02:26:09;;;;;;;12.00;7.28;;;;;;;10.40;56.08;101094.03;5011898;28;20026;-79
2022/10/18 02:28:34;;;;;;;9.63;6.82;;;;;;;10.29;56.03;101084.44;5011725;28;20087;-79
2022/10/18 02:31:12;;;;;;;10.80;6.50;;;;;;;10.83;56.16;101163.16;5011472;28;20029;-79
2022/10/18 02:33:52;;;;;;;11.63;6.90;;;;;;;10.80;56.19;101162.59;5010128;28;20486;-79
2022/10/18 02:36:41;;;;;;;11.82;6.90;;;;;;;10.26;55.77;101075.97;5011558;28;20029;-79
2022/10/18 02:39:15;;;;;;;12.25;7.47;;;;;;;10.75;55.49;101143.69;5011711;28;20030;-79
2022/10/18 02:41:42;;;;;;;11.38;8.05;;;;;;;10.54;56.33;101106.03;5011728;28;20026;-79
2022/10/18 02:44:08;;;;;;;11.02;7.38;;;;;;;10.92;55.82;101160.63;5011709;28;20021;-79
2022/10/18 02:46:33;;;;;;;32.40;17.90;;;;;;;10.48;55.53;101081.00;5011540;28;20049;-79
2022/10/18 02:48:59;;;;;;;26.33;17.20;;;;;;;10.99;55.84;101177.59;5011758;28;20061;-79
2022/10/18 02:51:24;;;;;;;16.02;9.57;;;;;;;10.70;55.63;101098.34;5015605;28;20086;-79
2022/10/18 02:53:50;;;;;;;9.55;6.43;;;;;;;10.78;56.30;101114.34;5015711;28;20057;-79
2022/10/18 02:56:15;;;;;;;8.00;6.53;;;;;;;10.69;56.28;101101.97;5015585;28;20395;-79
2022/10/18 02:58:41;;;;;;;10.82;6.95;;;;;;;9.40;55.88;100900.78;5015665;28;20029;-79
2022/10/18 03:01:06;;;;;;;8.43;6.57;;;;;;;8.89;56.74;100831.47;5014364;28;20014;-79
2022/10/18 03:03:31;;;;;;;9.00;7.03;;;;;;;10.72;56.23;101134.22;5015427;28;20517;-79
2022/10/18 03:05:57;;;;;;;11.05;6.55;;;;;;;10.91;56.12;101162.44;5015340;28;20026;-79
2022/10/18 03:08:22;;;;;;;10.63;6.82;;;;;;;10.72;55.83;101120.19;5013617;28;20038;-79
2022/10/18 03:10:48;;;;;;;10.82;7.32;;;;;;;10.85;55.99;101155.06;5015042;28;20056;-79
2022/10/18 03:13:13;;;;;;;9.50;6.50;;;;;;;10.88;56.33;101170.66;5015562;28;21078;-79
2022/10/18 03:15:39;;;;;;;12.57;7.13;;;;;;;10.12;56.46;101059.53;5015167;28;20057;-79
2022/10/18 03:18:04;;;;;;;16.58;12.30;;;;;;;10.06;56.12;101041.63;5015206;28;20026;-79
2022/10/18 03:20:30;;;;;;;16.80;10.27;;;;;;;10.69;56.46;101160.09;5014966;28;20490;-80
2022/10/18 03:22:55;;;;;;;13.30;9.95;;;;;;;10.52;56.44;101126.44;5015061;28;20129;-79
2022/10/18 03:25:21;;;;;;;11.55;7.32;;;;;;;9.83;56.11;101011.19;5015061;28;20029;-79
2022/10/18 03:27:46;;;;;;;10.73;6.50;;;;;;;10.24;56.55;101099.03;5015037;28;20018;-79
2022/10/18 03:30:12;;;;;;;8.68;6.25;;;;;;;10.34;56.46;101115.72;5014855;28;20080;-79
2022/10/18 03:32:38;;;;;;;13.05;6.82;;;;;;;10.67;56.50;101167.31;5014768;28;20037;-79
2022/10/18 03:35:05;;;;;;;6.43;5.78;;;;;;;10.35;56.44;101115.56;5014837;28;20026;-79
2022/10/18 03:37:30;;;;;;;10.63;7.07;;;;;;;10.29;56.72;101125.84;5014776;28;20033;-79
2022/10/18 03:39:56;;;;;;;11.80;7.15;;;;;;;9.77;56.52;101019.66;5014707;28;20025;-79
2022/10/18 03:42:21;;;;;;;12.40;7.75;;;;;;;9.13;56.54;100923.34;5014630;28;20097;-79
2022/10/18 03:44:47;;;;;;;8.43;6.60;;;;;;;9.16;56.47;100932.78;5014526;28;20499;-79
2022/10/18 03:47:12;;;;;;;11.25;7.28;;;;;;;10.46;56.93;101148.97;5013492;28;20104;-79
2022/10/18 03:49:38;;;;;;;12.05;9.77;;;;;;;10.28;56.57;101113.63;5014224;28;20033;-79
2022/10/18 03:52:03;;;;;;;11.48;8.57;;;;;;;10.44;56.37;101158.84;5014309;28;20029;-79
2022/10/18 03:54:29;;;;;;;9.73;7.93;;;;;;;10.61;56.92;101167.88;5014383;28;20017;-79
2022/10/18 03:56:54;;;;;;;8.45;6.95;;;;;;;9.91;56.14;101052.72;5014459;28;20122;-78
2022/10/18 03:59:21;;;;;;;9.73;6.72;;;;;;;9.98;56.57;101065.22;5013158;28;20026;-78
2022/10/18 04:01:46;;;;;;;10.10;6.70;;;;;;;10.31;56.75;101116.00;5013078;28;20061;-79
2022/10/18 04:04:12;;;;;;;9.88;6.88;;;;;;;10.42;56.63;101131.72;5014427;28;20064;-79
2022/10/18 04:06:37;;;;;;;10.55;6.70;;;;;;;10.26;56.89;101131.41;5014068;28;20046;-79
2022/10/18 04:09:03;;;;;;;10.75;7.10;;;;;;;10.22;57.00;101115.00;5014032;28;20108;-79
2022/10/18 04:11:28;;;;;;;8.38;7.22;;;;;;;10.32;57.13;101128.22;5013860;28;20029;-78
2022/10/18 04:13:53;;;;;;;11.35;7.88;;;;;;;9.94;57.18;101055.91;5014112;28;20056;-79
2022/10/18 04:16:19;;;;;;;11.32;7.82;;;;;;;10.44;56.78;101145.63;5012780;28;20022;-78
2022/10/18 04:18:44;;;;;;;11.95;7.45;;;;;;;10.37;56.69;101137.38;5013971;28;20080;-78
2022/10/18 04:21:09;;;;;;;16.10;11.40;;;;;;;9.99;56.73;101085.38;5012625;28;20014;-78
2022/10/18 04:23:35;;;;;;;36.95;21.38;;;;;;;10.27;57.25;101111.97;5012691;28;20156;-79
2022/10/18 04:26:00;;;;;;;13.65;8.77;;;;;;;10.25;56.46;101106.81;5013841;28;20022;-78
2022/10/18 04:28:25;;;;;;;14.68;8.32;;;;;;;10.28;56.93;101127.66;5013844;28;20072;-79
2022/10/18 04:30:52;;;;;;;11.93;8.63;;;;;;;10.28;56.85;101125.03;5012494;28;20434;-78
2022/10/18 04:33:18;;;;;;;16.98;8.80;;;;;;;10.75;56.38;101164.81;5012511;28;20055;-78
2022/10/18 04:35:43;;;;;;;9.32;7.57;;;;;;;10.05;55.89;101061.06;5012998;28;20104;-79
2022/10/18 04:38:09;;;;;;;18.58;8.60;;;;;;;10.73;56.57;101174.69;5012200;28;20044;-79
2022/10/18 04:40:34;;;;;;;15.93;8.43;;;;;;;9.96;56.43;101056.63;5013463;28;20018;-79
2022/10/18 04:42:59;;;;;;;13.75;8.90;;;;;;;10.02;56.29;101071.91;5013355;28;20017;-79
2022/10/18 04:45:25;;;;;;;12.43;8.38;;;;;;;10.22;56.32;101124.72;5012177;28;20414;-78
2022/10/18 04:47:50;;;;;;;14.32;9.07;;;;;;;10.04;56.98;101106.91;5013410;28;20030;-78
2022/10/18 04:50:16;;;;;;;12.35;8.75;;;;;;;8.89;56.56;100913.13;5013286;28;20036;-78
2022/10/18 04:52:41;;;;;;;20.80;9.38;;;;;;;9.73;56.95;101063.94;5013345;28;20018;-78
2022/10/18 04:55:07;;;;;;;13.68;8.90;;;;;;;10.04;57.31;101112.19;5013330;28;20030;-78
2022/10/18 04:57:32;;;;;;;14.13;9.85;;;;;;;9.96;56.79;101098.81;5013561;28;20104;-79
2022/10/18 04:59:58;;;;;;;19.70;10.20;;;;;;;9.73;57.25;101081.56;5013075;28;20097;-79
2022/10/18 05:02:23;;;;;;;15.15;9.40;;;;;;;10.10;57.20;101124.00;5013302;28;20561;-78
2022/10/18 05:04:49;;;;;;;16.15;9.90;;;;;;;9.79;57.08;101073.94;5013289;28;20092;-78
2022/10/18 05:07:16;;;;;;;15.20;9.57;;;;;;;10.37;56.97;101162.97;5012754;28;20053;-78
2022/10/18 05:09:41;;;;;;;12.70;10.27;;;;;;;10.06;57.02;101080.38;5013033;28;20583;-79
2022/10/18 05:12:06;;;;;;;17.65;9.73;;;;;;;10.19;56.75;101099.41;5012407;28;20105;-78
2022/10/18 05:14:32;;;;;;;17.83;11.82;;;;;;;9.96;56.60;101061.06;5012658;28;20033;-78
2022/10/18 05:16:57;;;;;;;18.00;13.02;;;;;;;10.43;56.69;101146.59;5012668;28;20029;-78
2022/10/18 05:19:22;;;;;;;18.63;12.27;;;;;;;10.34;56.97;101121.00;5012518;28;20466;-78
2022/10/18 05:21:48;;;;;;;21.85;14.18;;;;;;;10.48;56.71;101152.31;5011409;28;20453;-78
2022/10/18 05:24:13;;;;;;;18.40;14.23;;;;;;;9.86;56.66;101045.22;5011488;28;20096;-79
2022/10/18 05:26:39;;;;;;;21.92;15.43;;;;;;;10.27;57.07;101125.16;5012665;28;20026;-78
2022/10/18 05:29:04;;;;;;;21.23;16.92;;;;;;;10.68;56.96;101169.81;5012869;28;20022;-79
2022/10/18 05:31:30;;;;;;;20.73;15.35;;;;;;;10.77;56.40;101184.84;5011244;28;20025;-78
2022/10/18 05:33:55;;;;;;;19.02;14.30;;;;;;;10.62;56.60;101186.22;5012292;28;20105;-78
2022/10/18 05:36:20;;;;;;;19.27;14.80;;;;;;;10.51;56.54;101125.63;4992974;28;20044;-79
2022/10/18 05:38:47;;;;;;;21.48;13.55;;;;;;;10.61;56.39;101147.56;5006175;28;20018;-78
2022/10/18 05:41:13;;;;;;;16.73;11.20;;;;;;;10.91;56.12;101173.00;5010275;28;20049;-79
2022/10/18 05:43:39;;;;;;;21.65;12.32;;;;;;;10.39;56.79;101085.28;5012236;28;20076;-79
2022/10/18 05:46:06;;;;;;;23.73;13.02;;;;;;;10.42;56.42;101087.69;5010934;28;20025;-79
2022/10/18 05:48:32;;;;;;;18.92;12.18;;;;;;;11.00;56.49;101185.38;5010664;28;20072;-78
2022/10/18 05:50:58;;;;;;;18.05;11.82;;;;;;;10.38;56.02;101069.59;5012192;28;20085;-78
2022/10/18 05:53:24;;;;;;;16.42;11.40;;;;;;;10.41;56.23;101085.19;5011104;28;20133;-79
2022/10/18 05:55:49;;;;;;;18.17;10.68;;;;;;;10.74;56.29;101129.63;5012163;28;20108;-79
2022/10/18 05:58:14;;;;;;;19.35;12.90;;;;;;;10.84;55.90;101153.41;5003991;28;20102;-79
2022/10/18 06:00:40;;;;;;;19.38;12.27;;;;;;;10.47;56.38;101071.41;5001981;28;20517;-79
2022/10/18 06:03:05;;;;;;;19.23;12.02;;;;;;;10.94;56.18;101171.91;5011808;28;20025;-79
2022/10/18 06:05:30;;;;;;;16.13;11.07;;;;;;;10.62;55.85;101091.13;5010878;28;20029;-78
2022/10/18 06:07:56;;;;;;;15.48;10.05;;;;;;;10.82;55.82;101092.78;5010618;28;20537;-79
2022/10/18 06:10:21;;;;;;;16.52;11.15;;;;;;;11.14;55.62;101137.38;5011601;28;20018;-78
2022/10/18 06:12:47;;;;;;;14.07;10.20;;;;;;;11.52;55.57;101177.09;5010502;28;20029;-79
2022/10/18 06:15:13;;;;;;;19.20;11.00;;;;;;;11.27;55.50;101145.00;5011769;28;20026;-79
2022/10/18 06:17:38;;;;;;;14.93;10.35;;;;;;;11.61;55.44;101160.34;5011658;28;20100;-79
2022/10/18 06:20:04;;;;;;;15.15;10.73;;;;;;;11.30;55.16;101094.50;5011632;28;20021;-79
2022/10/18 06:22:29;;;;;;;17.80;11.15;;;;;;;11.89;55.16;101185.06;5003976;28;20018;-79
2022/10/18 06:24:55;;;;;;;14.95;11.02;;;;;;;11.40;55.23;101103.22;4991427;28;20026;-79
2022/10/18 06:27:20;;;;;;;15.43;11.40;;;;;;;11.28;55.26;101066.53;4992171;28;20022;-78
2022/10/18 06:29:45;;;;;;;19.23;11.52;;;;;;;11.29;54.43;101062.91;4991937;28;20518;-78
2022/10/18 06:32:11;;;;;;;13.02;10.48;;;;;;;11.66;54.71;101103.38;4991965;28;20056;-78
2022/10/18 06:34:36;;;;;;;17.00;11.60;;;;;;;11.96;54.62;101139.34;5006515;28;20034;-78
2022/10/18 06:37:02;;;;;;;14.63;11.35;;;;;;;12.40;54.39;101181.88;5010204;28;20045;-79
2022/10/18 06:39:27;;;;;;;18.92;11.60;;;;;;;12.48;54.58;101179.31;5004861;28;20027;-78
2022/10/18 06:41:52;;;;;;;15.38;10.52;;;;;;;12.59;54.34;101183.53;5000821;28;21173;-79
2022/10/18 06:44:19;;;;;;;14.02;10.63;;;;;;;12.25;54.13;101114.50;5002065;28;20491;-79
2022/10/18 06:46:46;;;;;;;14.80;10.05;;;;;;;12.71;54.22;101169.94;5004563;28;20030;-79
2022/10/18 06:49:13;;;;;;;14.00;10.20;;;;;;;12.16;54.11;101063.28;4994141;28;20101;-79
2022/10/18 06:51:39;;;;;;;17.00;10.73;;;;;;;12.78;54.39;101191.38;5004250;28;20030;-78
2022/10/18 06:54:05;;;;;;;13.77;10.25;;;;;;;12.90;53.79;101163.63;5010211;28;20517;-78
2022/10/18 06:56:30;;;;;;;14.35;10.23;;;;;;;12.95;53.94;101171.97;5006243;28;20117;-79
2022/10/18 06:58:55;;;;;;;13.45;10.05;;;;;;;12.60;53.74;101098.59;5008635;28;20024;-78
2022/10/18 07:01:27;;;;;;;14.48;10.73;;;;;;;12.79;53.94;101108.22;5008290;28;20495;-79
2022/10/18 07:03:53;;;;;;;11.68;8.95;;;;;;;13.20;53.62;101162.41;5008394;28;20033;-79
2022/10/18 07:06:20;;;;;;;17.70;13.00;;;;;;;12.95;53.19;101110.16;5006560;28;20065;-78
2022/10/18 07:08:47;;;;;;;12.27;8.77;;;;;;;13.11;53.28;101133.31;5011183;28;20564;-79
2022/10/18 07:11:18;;;;;;;15.95;11.35;;;;;;;13.33;53.06;101165.47;5009726;28;20022;-79
2022/10/18 07:13:44;;;;;;;11.52;9.32;;;;;;;12.65;52.86;101040.72;5009897;28;20030;-79
2022/10/18 07:16:15;;;;;;;10.50;8.07;;;;;;;12.93;53.02;101062.59;5007020;28;20511;-79
2022/10/18 07:18:43;;;;;;;9.98;7.68;;;;;;;13.62;52.52;101153.72;4999896;28;20025;-79
2022/10/18 07:21:11;;;;;;;12.85;7.50;;;;;;;12.87;52.43;101020.81;5000286;28;20053;-79
2022/10/18 07:23:38;;;;;;;8.23;6.40;;;;;;;13.80;52.42;101154.47;4998969;28;20431;-78
2022/10/18 07:26:11;;;;;;;13.25;6.63;;;;;;;13.14;52.76;101048.13;4992814;28;20034;-78
2022/10/18 07:28:37;;;;;;;7.45;6.35;;;;;;;13.46;52.65;101092.59;4994075;28;20027;-78
2022/10/18 07:31:06;;;;;;;13.40;8.15;;;;;;;12.97;52.52;101002.13;5014844;28;20037;-79
2022/10/18 07:33:33;;;;;;;10.43;7.03;;;;;;;14.04;52.22;101137.78;5005133;28;20544;-79
2022/10/18 07:36:03;;;;;;;10.68;8.07;;;;;;;13.91;52.06;101100.25;5006288;28;20034;-78
2022/10/18 07:38:28;;;;;;;8.02;6.65;;;;;;;13.70;51.95;101070.66;5014746;28;20041;-79
2022/10/18 07:41:01;;;;;;;11.30;8.05;;;;;;;14.15;51.67;101115.44;5014221;28;20025;-79
2022/10/18 07:43:27;;;;;;;10.52;6.63;;;;;;;14.32;51.37;101133.91;5014877;28;20030;-78
2022/10/18 07:45:54;;;;;;;10.38;7.13;;;;;;;14.23;51.31;101112.78;5011024;28;20018;-79
2022/10/18 07:48:20;;;;;;;10.20;7.82;;;;;;;13.12;51.22;100909.56;5010977;28;20075;-78
2022/10/18 07:50:45;;;;;;;9.02;6.65;;;;;;;14.06;50.89;101048.16;5009542;28;20025;-79
2022/10/18 07:53:11;;;;;;;11.82;7.00;;;;;;;14.46;50.50;101121.81;5008330;28;20037;-79
2022/10/18 07:55:36;;;;;;;11.32;6.57;;;;;;;14.41;50.39;101100.19;5006184;28;20028;-79
2022/10/18 07:58:02;;;;;;;13.70;8.15;;;;;;;14.22;50.35;101064.16;5009207;28;20028;-79
2022/10/18 08:00:27;;;;;;;12.73;7.40;;;;;;;13.88;50.14;100997.84;5012758;28;20074;-79
2022/10/18 08:02:57;;;;;;;12.30;7.97;;;;;;;14.39;49.75;101077.44;5006942;28;20487;-80
2022/10/18 08:05:24;;;;;;;7.72;6.18;;;;;;;14.39;49.60;101061.50;4996000;28;20522;-79
2022/10/18 08:07:49;;;;;;;8.95;6.30;;;;;;;14.27;49.38;101027.28;4999061;28;20511;-79
2022/10/18 08:10:15;;;;;;;9.30;7.80;;;;;;;14.61;49.16;101056.38;4994259;28;20040;-79
2022/10/18 08:12:40;;;;;;;10.55;7.60;;;;;;;14.73;48.67;101059.53;5005598;28;20021;-79
2022/10/18 08:15:06;;;;;;;11.75;8.80;;;;;;;14.83;48.60;101060.16;5012494;28;20033;-79
2022/10/18 08:17:32;;;;;;;13.18;9.13;;;;;;;14.65;48.51;101010.84;5012665;28;20061;-79
2022/10/18 08:19:57;;;;;;;10.15;7.10;;;;;;;14.88;48.26;101035.75;5012462;28;20105;-79
2022/10/18 08:22:23;;;;;;;11.32;6.75;;;;;;;14.81;48.08;101035.59;5009885;28;20029;-79
2022/10/18 08:24:48;;;;;;;8.52;6.18;;;;;;;15.39;47.99;101100.13;5008313;28;20029;-79
2022/10/18 08:27:14;;;;;;;10.15;5.45;;;;;;;15.31;47.81;101052.25;5011061;28;20026;-78
2022/10/18 08:29:40;;;;;;;8.02;5.30;;;;;;;15.25;47.33;101029.84;5005610;28;20446;-79
2022/10/18 08:32:06;;;;;;;7.78;4.90;;;;;;;15.53;47.24;101048.84;5011453;28;20053;-79
2022/10/18 08:34:33;;;;;;;12.70;6.63;;;;;;;15.48;46.85;101037.88;4997030;28;20114;-78
2022/10/18 08:36:58;;;;;;;7.93;7.00;;;;;;;14.68;46.77;100917.47;5011535;28;20651;-79
2022/10/18 08:39:23;;;;;;;9.98;4.85;;;;;;;14.74;46.38;100877.72;5001666;28;20022;-79
2022/10/18 08:41:52;;;;;;;7.00;4.75;;;;;;;16.01;46.19;101062.97;4993693;28;20038;-79
2022/10/18 08:44:22;;;;;;;8.07;6.25;;;;;;;15.77;45.71;101011.50;4994849;28;20408;-79
2022/10/18 08:46:51;;;;;;;8.40;4.82;;;;;;;15.75;45.56;100991.38;5011264;28;20022;-79
2022/10/18 08:49:35;;;;;;;8.15;4.82;;;;;;;16.25;44.72;101051.31;5011576;28;20496;-80
2022/10/18 08:52:02;;;;;;;10.23;5.78;;;;;;;15.63;45.17;100942.19;5012863;28;20029;-79
2022/10/18 08:54:38;;;;;;;6.53;5.20;;;;;;;15.89;44.87;100961.31;5011297;28;20029;-79
2022/10/18 08:57:13;;;;;;;9.13;5.95;;;;;;;16.52;44.45;101038.28;4995139;28;20101;-78
2022/10/18 08:59:39;;;;;;;7.07;5.10;;;;;;;16.13;44.12;100961.13;4993468;28;20092;-78
2022/10/18 09:02:29;;;;;;;5.88;5.07;;;;;;;16.46;42.97;101009.66;4997772;28;20021;-79
2022/10/18 09:05:07;;;;;;;6.97;4.45;;;;;;;16.69;43.12;101033.66;5011430;28;20026;-78
2022/10/18 09:07:41;;;;;;;7.35;5.20;;;;;;;16.77;42.75;101032.75;5006115;28;20049;-79
2022/10/18 09:10:41;;;;;;;12.88;9.65;;;;;;;16.88;42.80;101026.94;5006701;28;20038;-79
2022/10/18 09:13:18;;;;;;;5.57;4.30;;;;;;;17.01;41.64;101016.47;5006779;28;20037;-79
2022/10/18 09:16:00;;;;;;;7.18;4.43;;;;;;;17.11;41.60;101014.38;5009879;28;20442;-79
2022/10/18 09:18:41;;;;;;;8.02;6.82;;;;;;;17.20;42.22;101015.13;5009534;28;20553;-80
2022/10/18 09:21:19;;;;;;;6.45;4.85;;;;;;;17.33;41.71;101009.94;5012401;28;20072;-79
2022/10/18 09:23:50;;;;;;;7.38;5.50;;;;;;;17.38;41.82;101004.88;4993013;28;20023;-79
2022/10/18 09:26:23;;;;;;;8.50;5.28;;;;;;;17.05;41.25;100936.88;5004444;28;20052;-79
2022/10/18 09:29:04;;;;;;;8.63;4.93;;;;;;;17.57;41.25;100995.44;5010359;28;20021;-79
2022/10/18 09:31:38;;;;;;;7.10;5.18;;;;;;;17.63;41.12;100993.84;5001829;28;20117;-78
2022/10/18 09:34:29;;;;;;;9.38;7.55;;;;;;;17.75;40.68;100985.19;5005090;28;20033;-79
2022/10/18 09:36:55;;;;;;;9.07;5.40;;;;;;;17.27;40.88;100897.75;5001699;28;20041;-79
2022/10/18 09:39:24;;;;;;;10.07;7.15;;;;;;;17.73;40.88;100949.81;5003784;28;20030;-79
2022/10/18 09:41:56;;;;;;;5.70;4.72;;;;;;;17.63;40.21;100930.59;5009449;28;20029;-79
2022/10/18 09:44:27;;;;;;;;;;;;;;;17.73;40.25;100968.53;5009226;28;20040;-78
2022/10/18 09:47:01;;;;;;;7.70;5.25;;;;;;;17.93;40.79;100963.41;5002947;28;19929;-79
2022/10/18 09:49:41;;;;;;;9.98;6.45;;;;;;;17.57;40.14;100893.94;5005735;28;20100;-79
2022/10/18 09:52:14;;;;;;;8.57;4.20;;;;;;;17.78;39.63;100911.84;5010516;28;20160;-80
2022/10/18 09:54:48;;;;;;;8.45;4.47;;;;;;;18.05;39.28;100934.31;5005396;28;20060;-79
2022/10/18 09:57:26;;;;;;;6.15;4.30;;;;;;;17.82;38.75;100880.22;5007075;28;20022;-79
2022/10/18 09:59:51;;;;;;;7.60;6.55;;;;;;;18.33;39.01;100945.03;5007744;28;20336;-79
2022/10/18 10:02:22;;;;;;;8.43;6.47;;;;;;;18.45;38.32;100932.78;5001622;28;20522;-79
2022/10/18 10:04:53;;;;;;;11.27;8.20;;;;;;;17.91;38.54;100829.16;5001434;28;20388;-77
2022/10/18 10:07:33;;;;;;;13.70;8.05;;;;;;;18.43;37.30;100892.03;5001551;28;20046;-79
2022/10/18 10:10:27;;;;;;;10.02;6.30;;;;;;;18.75;38.27;100922.72;5015699;28;20137;-79
2022/10/18 10:13:15;;;;;;;8.25;5.45;;;;;;;18.90;37.14;100915.38;5009806;28;20033;-80
2022/10/18 10:15:50;;;;;;;7.55;4.32;;;;;;;19.01;37.44;100912.13;5011583;28;20052;-78
2022/10/18 10:18:26;;;;;;;6.55;3.70;;;;;;;18.88;35.80;100871.94;5001673;28;20026;-79
2022/10/18 10:20:54;;;;;;;7.03;4.22;;;;;;;19.16;36.29;100898.59;4996852;28;20032;-79
2022/10/18 10:23:32;;;;;;;5.90;3.40;;;;;;;19.19;35.99;100897.38;5024395;28;20029;-78
2022/10/18 10:26:04;;;;;;;5.78;3.97;;;;;;;19.32;35.03;100897.41;5005558;28;20026;-79
2022/10/18 10:28:34;;;;;;;5.68;3.60;;;;;;;19.31;35.64;100888.56;5007782;28;20030;-79
2022/10/18 10:31:22;;;;;;;6.68;3.80;;;;;;;19.01;35.72;100845.22;4999653;28;20092;-79
2022/10/18 10:34:01;;;;;;;5.53;4.38;;;;;;;19.56;35.26;100880.00;5009437;28;20029;-79
2022/10/18 10:36:26;;;;;;;10.15;5.15;;;;;;;19.53;34.81;100875.88;5005406;28;20072;-79
2022/10/18 10:39:03;;;;;;;5.82;4.00;;;;;;;19.56;34.32;100870.13;5000530;28;20487;-79
2022/10/18 10:41:28;;;;;;;6.40;4.35;;;;;;;19.22;34.68;100801.41;5002864;28;20030;-79
2022/10/18 10:43:54;;;;;;;5.45;3.67;;;;;;;19.53;34.86;100846.41;5004213;28;20091;-79
2022/10/18 10:46:22;;;;;;;7.90;4.13;;;;;;;19.77;34.56;100850.34;5004040;28;20032;-78
2022/10/18 10:48:54;;;;;;;8.90;3.45;;;;;;;19.89;34.37;100850.53;5002132;28;20946;-79
2022/10/18 10:51:52;;;;;;;6.25;3.67;;;;;;;19.95;34.04;100842.50;5008877;28;20256;-79
2022/10/18 10:54:23;;;;;;;6.25;3.90;;;;;;;19.98;34.14;100835.88;4991967;28;20117;-79
2022/10/18 10:57:09;;;;;;;5.20;3.38;;;;;;;20.04;33.71;100831.56;5007455;28;20026;-79
2022/10/18 10:59:58;;;;;;;7.57;4.50;;;;;;;19.87;33.97;100802.50;5006283;28;20022;-78
2022/10/18 11:02:32;;;;;;;6.93;3.70;;;;;;;20.11;33.21;100816.31;5004555;28;20504;-79
2022/10/18 11:05:24;;;;;;;7.63;4.32;;;;;;;20.06;33.23;100800.81;5009758;28;20105;-79
2022/10/18 11:07:53;;;;;;;8.00;4.38;;;;;;;19.86;33.85;100757.13;5010739;28;20049;-78
2022/10/18 11:10:23;;;;;;;15.05;4.07;;;;;;;19.69;33.79;100729.97;5010988;28;20565;-78
2022/10/18 11:13:11;;;;;;;5.40;3.88;;;;;;;20.12;33.85;100800.00;5014961;28;20032;-79
2022/10/18 11:15:51;;;;;;;6.55;3.95;;;;;;;19.91;33.97;100771.56;5013642;28;20088;-79
2022/10/18 11:18:20;;;;;;;7.53;4.63;;;;;;;19.84;34.52;100760.03;5014126;28;20026;-79
2022/10/18 11:21:00;;;;;;;5.47;4.10;;;;;;;19.98;34.18;100784.94;5013252;28;20025;-78
2022/10/18 11:23:35;;;;;;;10.25;4.80;;;;;;;19.99;34.78;100791.97;5004351;28;20097;-79
2022/10/18 11:26:12;;;;;;;5.22;4.10;;;;;;;19.96;34.42;100785.16;5006579;28;20065;-79
2022/10/18 11:29:06;;;;;;;7.30;5.25;;;;;;;19.88;34.92;100773.84;4994792;28;20089;-79
2022/10/18 11:31:32;;;;;;;5.68;4.35;;;;;;;19.85;35.17;100764.34;4993486;28;20130;-79